Time;durP1;ratioP1;P1;durP2;ratioP2;P2;SDS_P1;SDS_P2;PMS_P1;PMS_P2;Temp;Humidity;BMP_temperature;BMP_pressure;BME280_temperature;BME280_humidity;BME280_pressure;Samples;Min_cycle;Max_cycle;Signal;HPM_P1;HPM_P2
2022/01/31 00:01:33;;;;;;;12.27;2.55;;;8.10;99.90;;;;;;5012454;28;20046;-76
2022/01/31 00:04:00;;;;;;;8.20;2.53;;;8.00;99.90;;;;;;5013257;28;20501;-75
2022/01/31 00:06:27;;;;;;;4.38;1.60;;;8.00;99.90;;;;;;5013102;28;20057;-74
2022/01/31 00:08:54;;;;;;;6.70;2.58;;;8.00;99.90;;;;;;4987140;28;20406;-75
2022/01/31 00:11:22;;;;;;;6.13;2.70;;;7.90;99.90;;;;;;5013509;28;20054;-75
2022/01/31 00:13:59;;;;;;;4.88;2.00;;;7.90;99.90;;;;;;5013366;28;20062;-75
2022/01/31 00:16:31;;;;;;;6.25;2.10;;;7.90;99.90;;;;;;4997510;28;20052;-75
2022/01/31 00:19:00;;;;;;;5.75;2.40;;;7.90;99.90;;;;;;5012708;28;20493;-75
2022/01/31 00:21:27;;;;;;;62.75;45.78;;;7.80;99.90;;;;;;4984008;28;20048;-68
2022/01/31 00:23:54;;;;;;;48.10;36.00;;;7.80;99.90;;;;;;5009888;28;20046;-71
2022/01/31 00:26:21;;;;;;;64.93;33.08;;;7.80;99.90;;;;;;4993419;28;20046;-72
2022/01/31 00:28:48;;;;;;;9.40;5.07;;;7.80;99.90;;;;;;4996762;28;20515;-72
2022/01/31 00:31:15;;;;;;;6.72;2.25;;;7.80;99.90;;;;;;5012191;28;20140;-71
2022/01/31 00:33:42;;;;;;;6.20;2.42;;;7.80;99.90;;;;;;5012889;28;20042;-71
2022/01/31 00:36:09;;;;;;;8.00;3.15;;;7.90;99.90;;;;;;5003675;28;20515;-71
2022/01/31 00:38:37;;;;;;;6.00;1.58;;;7.90;99.90;;;;;;5012061;28;20037;-70
2022/01/31 00:41:04;;;;;;;5.07;2.28;;;7.90;99.90;;;;;;4979485;28;20507;-71
2022/01/31 00:43:34;;;;;;;3.92;1.83;;;8.00;99.90;;;;;;4996132;28;20508;-71
2022/01/31 00:46:08;;;;;;;9.20;2.63;;;8.00;99.90;;;;;;4974939;28;20482;-71
2022/01/31 00:48:41;;;;;;;5.88;2.40;;;8.10;99.90;;;;;;5011333;28;20549;-70
2022/01/31 00:51:09;;;;;;;6.20;1.42;;;8.10;99.90;;;;;;5004348;28;20528;-71
2022/01/31 00:53:36;;;;;;;3.75;1.85;;;8.10;99.90;;;;;;5013371;28;20060;-71
2022/01/31 00:56:04;;;;;;;5.40;1.85;;;8.10;99.90;;;;;;5006451;28;20042;-71
2022/01/31 00:58:31;;;;;;;3.70;1.70;;;8.10;99.90;;;;;;5005240;28;20046;-71
2022/01/31 01:00:58;;;;;;;6.10;1.80;;;8.10;99.90;;;;;;4996131;28;20053;-70
2022/01/31 01:03:25;;;;;;;5.85;1.63;;;8.00;99.90;;;;;;4998693;28;20480;-71
2022/01/31 01:05:53;;;;;;;2.47;1.25;;;8.00;99.90;;;;;;5014250;28;20057;-71
2022/01/31 01:08:20;;;;;;;5.50;1.70;;;7.90;99.90;;;;;;5025255;28;20049;-71
2022/01/31 01:10:47;;;;;;;3.75;1.33;;;7.90;99.90;;;;;;5011374;28;20188;-71
2022/01/31 01:13:14;;;;;;;3.47;1.30;;;7.80;99.90;;;;;;4996722;28;20085;-71
2022/01/31 01:15:41;;;;;;;3.30;1.38;;;7.80;99.90;;;;;;5017590;28;20057;-71
2022/01/31 01:18:08;;;;;;;3.95;1.40;;;7.70;99.90;;;;;;5014264;28;20052;-71
2022/01/31 01:20:35;;;;;;;6.18;1.98;;;7.80;99.90;;;;;;5017244;28;20053;-71
2022/01/31 01:23:02;;;;;;;5.95;1.60;;;7.80;99.90;;;;;;5023251;28;20056;-71
2022/01/31 01:25:31;;;;;;;6.88;1.60;;;7.80;99.90;;;;;;5010754;28;20053;-71
2022/01/31 01:27:58;;;;;;;6.43;1.60;;;7.80;99.80;;;;;;4994772;28;20053;-71
2022/01/31 01:30:25;;;;;;;5.93;1.55;;;7.80;96.70;;;;;;5008888;28;20049;-71
2022/01/31 01:33:01;;;;;;;5.45;1.50;;;7.80;97.60;;;;;;4969746;28;20132;-71
2022/01/31 01:35:33;;;;;;;8.27;1.70;;;7.80;97.20;;;;;;5010617;28;20061;-71
2022/01/31 01:38:06;;;;;;;8.07;2.38;;;7.80;97.10;;;;;;5011702;28;20484;-71
2022/01/31 01:40:38;;;;;;;7.07;2.30;;;7.70;95.70;;;;;;4995184;28;20041;-71
2022/01/31 01:43:05;;;;;;;5.75;1.98;;;7.70;95.00;;;;;;5028055;28;20041;-71
2022/01/31 01:45:34;;;;;;;4.43;1.52;;;7.70;95.00;;;;;;5018971;28;20077;-71
2022/01/31 01:48:01;;;;;;;9.98;2.35;;;7.60;95.70;;;;;;5003931;28;20060;-70
2022/01/31 01:50:29;;;;;;;4.90;1.60;;;7.50;92.70;;;;;;4997589;28;20060;-71
2022/01/31 01:52:56;;;;;;;5.00;1.45;;;7.50;95.30;;;;;;5001978;28;20060;-71
2022/01/31 01:55:23;;;;;;;6.65;2.08;;;7.40;95.00;;;;;;5030174;28;20049;-71
2022/01/31 01:57:49;;;;;;;4.53;2.08;;;7.40;94.50;;;;;;5015423;28;20056;-71
2022/01/31 02:00:24;;;;;;;6.95;1.52;;;7.40;94.00;;;;;;5031521;28;20124;-70
2022/01/31 02:02:51;;;;;;;7.43;1.50;;;7.40;94.40;;;;;;5014232;28;20041;-72
2022/01/31 02:05:18;;;;;;;4.78;1.88;;;7.30;94.30;;;;;;4998005;28;20049;-71
2022/01/31 02:07:45;;;;;;;4.47;1.40;;;7.30;93.30;;;;;;5013792;28;20045;-71
2022/01/31 02:10:13;;;;;;;8.88;1.55;;;7.30;94.20;;;;;;5031914;28;20070;-71
2022/01/31 02:12:44;;;;;;;9.52;2.80;;;7.30;94.10;;;;;;5015843;28;20055;-71
2022/01/31 02:15:11;;;;;;;7.75;2.20;;;7.30;93.40;;;;;;5029870;28;20053;-71
2022/01/31 02:17:38;;;;;;;5.93;1.40;;;7.30;93.30;;;;;;5029839;28;20041;-72
2022/01/31 02:20:07;;;;;;;6.13;1.75;;;7.30;93.50;;;;;;5012139;28;20056;-71
2022/01/31 02:22:35;;;;;;;3.17;1.30;;;7.30;94.00;;;;;;5022425;28;20053;-70
2022/01/31 02:25:03;;;;;;;12.05;2.58;;;7.30;94.40;;;;;;5018255;28;20428;-71
2022/01/31 02:27:31;;;;;;;9.25;2.25;;;7.20;94.70;;;;;;5033828;28;20049;-71
2022/01/31 02:29:59;;;;;;;7.07;2.20;;;7.20;95.40;;;;;;5002683;28;20099;-70
2022/01/31 02:32:26;;;;;;;8.73;2.92;;;7.20;96.60;;;;;;5015220;28;20049;-72
2022/01/31 02:34:53;;;;;;;8.80;2.50;;;7.20;97.70;;;;;;5029424;28;20400;-72
2022/01/31 02:37:20;;;;;;;6.40;1.92;;;7.20;97.80;;;;;;5035569;28;20049;-70
2022/01/31 02:39:47;;;;;;;8.55;2.70;;;7.10;97.40;;;;;;5024407;28;20124;-70
2022/01/31 02:42:14;;;;;;;8.70;2.05;;;7.10;98.00;;;;;;5034378;28;20474;-71
2022/01/31 02:44:41;;;;;;;6.18;1.60;;;7.10;98.30;;;;;;5017071;28;20132;-71
2022/01/31 02:47:16;;;;;;;6.45;2.40;;;7.00;98.10;;;;;;5017773;28;20511;-71
2022/01/31 02:49:50;;;;;;;5.72;2.15;;;7.00;99.00;;;;;;5000254;28;20045;-71
2022/01/31 02:52:18;;;;;;;3.70;1.52;;;6.90;98.30;;;;;;5033689;28;21677;-70
2022/01/31 02:54:45;;;;;;;11.25;1.95;;;6.90;99.40;;;;;;5033372;28;20049;-71
2022/01/31 02:57:12;;;;;;;6.82;2.08;;;6.90;98.50;;;;;;5031778;28;20065;-70
2022/01/31 02:59:39;;;;;;;8.82;2.22;;;6.90;98.80;;;;;;5001444;28;20132;-70
2022/01/31 03:02:06;;;;;;;5.07;1.70;;;6.80;99.20;;;;;;5000075;28;20065;-71
2022/01/31 03:04:34;;;;;;;9.98;2.92;;;6.80;99.00;;;;;;5001864;28;20068;-71
2022/01/31 03:07:01;;;;;;;7.05;1.98;;;6.80;98.50;;;;;;5022192;28;20486;-71
2022/01/31 03:09:28;;;;;;;9.10;1.60;;;6.80;96.40;;;;;;5023257;28;20224;-70
2022/01/31 03:11:55;;;;;;;8.00;2.33;;;6.80;95.00;;;;;;5003644;28;20049;-72
2022/01/31 03:14:22;;;;;;;8.57;2.42;;;6.80;95.00;;;;;;5030123;28;20059;-70
2022/01/31 03:16:49;;;;;;;5.47;2.05;;;6.80;96.20;;;;;;5052062;28;20053;-72
2022/01/31 03:19:16;;;;;;;7.10;1.80;;;6.80;98.70;;;;;;5020826;28;20096;-71
2022/01/31 03:21:43;;;;;;;7.70;1.92;;;6.70;99.90;;;;;;5034296;28;20573;-70
2022/01/31 03:24:11;;;;;;;5.57;2.25;;;6.60;99.90;;;;;;5032266;28;20131;-70
2022/01/31 03:26:38;;;;;;;7.85;2.55;;;6.60;99.90;;;;;;5019465;28;20044;-72
2022/01/31 03:29:05;;;;;;;3.97;1.75;;;6.50;99.90;;;;;;5027659;28;20041;-71
2022/01/31 03:31:32;;;;;;;7.70;1.90;;;6.50;99.90;;;;;;5024662;28;20396;-72
2022/01/31 03:33:59;;;;;;;6.63;1.60;;;6.40;99.90;;;;;;5030248;28;20045;-72
2022/01/31 03:36:26;;;;;;;8.57;2.20;;;6.40;99.90;;;;;;5033569;28;20040;-72
2022/01/31 03:38:53;;;;;;;6.47;1.85;;;6.40;99.90;;;;;;5033800;28;20041;-70
2022/01/31 03:41:21;;;;;;;6.10;1.75;;;6.40;99.90;;;;;;5032932;28;20525;-70
2022/01/31 03:43:48;;;;;;;6.82;2.00;;;6.30;99.90;;;;;;5030247;28;20045;-72
2022/01/31 03:46:15;;;;;;;6.57;2.17;;;6.30;99.90;;;;;;5049854;28;20146;-72
2022/01/31 03:48:43;;;;;;;9.70;2.42;;;6.30;99.90;;;;;;5034583;28;20115;-72
2022/01/31 03:51:10;;;;;;;6.40;1.83;;;6.40;99.70;;;;;;5038905;28;20056;-69
2022/01/31 03:53:37;;;;;;;6.47;2.08;;;6.40;98.50;;;;;;5031174;28;20049;-72
2022/01/31 03:56:04;;;;;;;9.57;2.03;;;6.40;98.40;;;;;;5043950;28;20056;-72
2022/01/31 03:58:31;;;;;;;7.68;2.45;;;6.50;98.30;;;;;;5002311;28;20050;-72
2022/01/31 04:00:58;;;;;;;6.25;2.17;;;6.60;98.80;;;;;;5015906;28;20057;-72
2022/01/31 04:03:26;;;;;;;9.50;2.30;;;6.60;99.30;;;;;;5023670;28;20102;-72
2022/01/31 04:05:53;;;;;;;9.82;2.10;;;6.60;99.30;;;;;;5026939;28;20041;-72
2022/01/31 04:08:20;;;;;;;6.80;1.95;;;6.60;99.30;;;;;;5021188;28;20047;-72
2022/01/31 04:10:47;;;;;;;7.38;2.00;;;6.60;99.60;;;;;;5018754;28;20083;-72
2022/01/31 04:13:16;;;;;;;8.32;2.15;;;6.50;99.90;;;;;;5015226;28;20412;-72
2022/01/31 04:15:43;;;;;;;9.48;3.25;;;6.50;99.90;;;;;;5023148;28;20047;-72
2022/01/31 04:18:10;;;;;;;7.88;2.30;;;6.60;99.90;;;;;;5019860;28;20095;-72
2022/01/31 04:20:38;;;;;;;5.72;1.85;;;6.60;99.80;;;;;;5011113;28;20049;-72
2022/01/31 04:23:10;;;;;;;4.40;1.83;;;6.60;99.00;;;;;;5051857;28;20057;-74
2022/01/31 04:28:21;;;;;;;5.47;1.70;;;6.60;98.20;;;;;;5025649;28;20053;-72
2022/01/31 04:30:57;;;;;;;8.77;2.42;;;6.70;95.90;;;;;;5034594;28;20048;-72
2022/01/31 04:33:25;;;;;;;6.65;2.10;;;6.70;95.10;;;;;;5031812;28;20068;-73
2022/01/31 04:35:52;;;;;;;12.25;3.13;;;6.70;94.40;;;;;;5026243;28;20075;-73
2022/01/31 04:38:20;;;;;;;5.57;1.98;;;6.70;93.80;;;;;;5029788;28;20053;-71
2022/01/31 04:40:47;;;;;;;6.22;1.77;;;6.70;93.00;;;;;;5013812;28;20168;-72
2022/01/31 04:43:15;;;;;;;6.30;1.85;;;6.70;92.70;;;;;;5027899;28;20060;-72
2022/01/31 04:45:47;;;;;;;9.05;2.50;;;6.80;92.40;;;;;;5043578;28;20136;-72
2022/01/31 04:48:15;;;;;;;7.25;2.20;;;6.80;92.30;;;;;;5001202;28;20049;-72
2022/01/31 04:50:42;;;;;;;5.30;1.70;;;6.80;92.70;;;;;;5013562;28;20094;-73
2022/01/31 04:53:10;;;;;;;11.00;1.98;;;6.80;91.60;;;;;;5025498;28;20152;-72
2022/01/31 04:55:37;;;;;;;6.43;1.95;;;6.90;92.20;;;;;;4994922;28;20042;-72
2022/01/31 04:58:05;;;;;;;7.18;2.03;;;6.90;91.40;;;;;;5004108;28;20129;-71
2022/01/31 05:00:33;;;;;;;7.40;2.45;;;6.90;92.00;;;;;;4999511;28;20050;-73
2022/01/31 05:03:00;;;;;;;10.48;2.20;;;6.80;91.80;;;;;;5011793;28;20052;-73
2022/01/31 05:05:28;;;;;;;10.35;2.28;;;6.90;91.50;;;;;;5015005;28;20045;-72
2022/01/31 05:07:55;;;;;;;13.18;3.30;;;6.90;91.00;;;;;;5013394;28;20048;-73
2022/01/31 05:10:23;;;;;;;6.57;2.03;;;6.90;91.00;;;;;;4991603;28;20077;-72
2022/01/31 05:12:50;;;;;;;6.13;2.35;;;6.90;90.10;;;;;;5008811;28;20500;-72
2022/01/31 05:15:17;;;;;;;8.75;2.33;;;7.00;90.50;;;;;;5017705;28;20046;-73
2022/01/31 05:17:44;;;;;;;10.35;2.28;;;7.00;90.30;;;;;;4983216;28;20046;-73
2022/01/31 05:20:11;;;;;;;13.75;2.72;;;7.10;88.00;;;;;;5018913;28;20042;-72
2022/01/31 05:22:38;;;;;;;5.53;2.40;;;7.10;88.40;;;;;;5030111;28;20053;-71
2022/01/31 05:25:06;;;;;;;5.97;1.95;;;7.20;86.60;;;;;;5001964;28;20505;-72
2022/01/31 05:27:33;;;;;;;6.25;1.85;;;7.30;86.90;;;;;;5011378;28;20049;-72
2022/01/31 05:30:00;;;;;;;8.30;2.78;;;7.30;87.90;;;;;;5026243;28;20054;-72
2022/01/31 05:32:26;;;;;;;6.82;2.17;;;7.20;90.50;;;;;;4985216;28;20046;-73
2022/01/31 05:34:53;;;;;;;5.95;1.55;;;7.10;92.20;;;;;;5012110;28;20038;-73
2022/01/31 05:37:21;;;;;;;7.28;1.55;;;6.90;93.30;;;;;;4995137;28;20132;-73
2022/01/31 05:39:48;;;;;;;8.30;1.90;;;6.80;94.20;;;;;;5006714;28;20056;-72
2022/01/31 05:42:15;;;;;;;6.05;2.20;;;6.70;94.50;;;;;;4997967;28;20046;-73
2022/01/31 05:44:43;;;;;;;7.22;1.85;;;6.60;94.80;;;;;;5012211;28;20072;-73
2022/01/31 05:47:10;;;;;;;9.82;2.17;;;6.60;93.80;;;;;;5010070;28;20405;-73
2022/01/31 05:49:38;;;;;;;8.15;2.00;;;6.60;94.40;;;;;;5011048;28;20122;-73
2022/01/31 05:52:07;;;;;;;8.63;2.22;;;6.50;93.90;;;;;;5013270;28;20052;-73
2022/01/31 05:54:37;;;;;;;7.97;1.85;;;6.50;92.60;;;;;;5024812;28;20038;-73
2022/01/31 05:57:04;;;;;;;;;;;6.50;92.40;;;;;;5035537;28;20049;-72
2022/01/31 05:59:31;;;;;;;8.32;2.00;;;6.50;92.70;;;;;;4999686;28;19965;-74
2022/01/31 06:02:00;;;;;;;8.60;3.45;;;6.50;91.90;;;;;;4987333;28;20057;-72
2022/01/31 06:04:29;;;;;;;9.63;3.08;;;6.50;92.10;;;;;;5037699;28;20103;-73
2022/01/31 06:06:57;;;;;;;7.57;3.25;;;6.40;91.50;;;;;;5036765;28;20047;-73
2022/01/31 06:09:28;;;;;;;9.80;2.28;;;6.50;90.90;;;;;;5025174;28;20053;-72
2022/01/31 06:11:55;;;;;;;7.57;2.13;;;6.40;91.30;;;;;;5003226;28;20349;-72
2022/01/31 06:14:22;;;;;;;9.32;2.17;;;6.40;91.00;;;;;;5037239;28;20158;-72
2022/01/31 06:16:49;;;;;;;10.65;2.65;;;6.40;90.70;;;;;;5035333;28;20487;-72
2022/01/31 06:19:16;;;;;;;9.25;2.28;;;6.40;89.30;;;;;;5035507;28;20059;-72
2022/01/31 06:21:43;;;;;;;12.15;2.80;;;6.40;88.30;;;;;;5036233;28;20053;-72
2022/01/31 06:24:10;;;;;;;11.52;2.95;;;6.40;85.80;;;;;;5019451;28;20044;-72
2022/01/31 06:26:38;;;;;;;8.50;1.98;;;6.40;87.30;;;;;;5018582;28;20045;-72
2022/01/31 06:29:05;;;;;;;10.27;2.85;;;6.40;86.40;;;;;;5017695;28;20470;-71
2022/01/31 06:31:32;;;;;;;13.13;3.58;;;6.30;86.20;;;;;;5001186;28;20045;-72
2022/01/31 06:34:00;;;;;;;15.52;3.17;;;6.30;87.20;;;;;;5018335;28;20048;-72
2022/01/31 06:36:27;;;;;;;12.68;3.75;;;6.30;87.20;;;;;;5022738;28;20599;-72
2022/01/31 06:38:54;;;;;;;8.88;2.90;;;6.30;86.80;;;;;;5025625;28;20048;-71
2022/01/31 06:41:23;;;;;;;115.72;71.32;;;6.30;86.00;;;;;;5021207;28;20072;-72
2022/01/31 06:43:50;;;;;;;28.75;13.65;;;6.30;86.30;;;;;;5018306;28;20051;-69
2022/01/31 06:46:17;;;;;;;17.17;6.18;;;6.40;86.50;;;;;;5017300;28;20488;-72
2022/01/31 06:48:45;;;;;;;11.02;4.95;;;6.30;86.00;;;;;;5022648;28;20584;-69
2022/01/31 06:51:12;;;;;;;11.45;3.50;;;6.30;85.30;;;;;;5018459;28;20435;-69
2022/01/31 06:53:40;;;;;;;14.30;3.55;;;6.30;84.80;;;;;;5027598;28;20536;-67
2022/01/31 06:56:08;;;;;;;12.90;4.03;;;6.30;85.30;;;;;;5018822;28;20045;-64
2022/01/31 06:58:35;;;;;;;14.85;4.15;;;6.30;85.70;;;;;;5036384;28;20059;-63
2022/01/31 07:01:02;;;;;;;10.23;4.22;;;6.30;86.90;;;;;;5018120;28;20046;-66
2022/01/31 07:03:29;;;;;;;12.52;3.28;;;6.30;85.50;;;;;;5053057;28;20076;-64
2022/01/31 07:05:56;;;;;;;15.18;4.80;;;6.30;86.60;;;;;;5001648;28;20046;-63
2022/01/31 07:08:23;;;;;;;18.15;5.07;;;6.30;85.80;;;;;;5019074;28;20068;-70
2022/01/31 07:10:52;;;;;;;15.75;4.25;;;6.30;85.80;;;;;;5023811;28;20133;-65
2022/01/31 07:13:37;;;;;;;12.85;3.60;;;6.30;86.80;;;;;;5032979;28;20136;-66
2022/01/31 07:16:05;;;;;;;59.95;31.88;;;6.30;85.70;;;;;;5024767;28;20055;-66
2022/01/31 07:18:33;;;;;;;20.63;8.95;;;6.30;87.10;;;;;;5045264;28;20222;-64
2022/01/31 07:21:01;;;;;;;9.80;3.27;;;6.40;86.10;;;;;;5017043;28;20045;-64
2022/01/31 07:23:38;;;;;;;16.88;3.50;;;6.40;87.00;;;;;;5037213;28;20091;-64
2022/01/31 07:26:05;;;;;;;16.27;3.90;;;6.30;86.20;;;;;;5033911;28;20552;-64
2022/01/31 07:28:32;;;;;;;11.43;3.00;;;6.30;86.70;;;;;;5026364;28;20037;-66
2022/01/31 07:31:00;;;;;;;11.05;4.68;;;6.20;87.30;;;;;;5041796;28;20484;-67
2022/01/31 07:33:27;;;;;;;12.27;3.85;;;6.20;87.40;;;;;;5017390;28;20053;-69
2022/01/31 07:35:55;;;;;;;17.42;5.38;;;6.20;87.70;;;;;;5023889;28;20042;-65
2022/01/31 07:38:22;;;;;;;14.65;3.58;;;6.20;88.30;;;;;;5034999;28;20049;-66
2022/01/31 07:40:51;;;;;;;13.35;3.90;;;6.10;89.00;;;;;;5032895;28;20120;-65
2022/01/31 07:43:18;;;;;;;16.77;4.85;;;6.10;89.20;;;;;;5017345;28;20042;-65
2022/01/31 07:45:45;;;;;;;13.65;4.22;;;6.10;90.00;;;;;;5014064;28;20049;-65
2022/01/31 07:48:12;;;;;;;12.93;3.88;;;6.10;89.40;;;;;;5032543;28;20436;-64
2022/01/31 07:50:39;;;;;;;32.35;17.33;;;6.20;94.50;;;;;;5031745;28;20038;-65
2022/01/31 07:53:06;;;;;;;25.90;13.55;;;6.20;91.00;;;;;;5034211;28;20128;-65
2022/01/31 07:55:33;;;;;;;13.63;5.15;;;6.20;90.30;;;;;;5028383;28;20120;-63
2022/01/31 07:58:00;;;;;;;10.20;3.90;;;6.10;90.20;;;;;;5013297;28;20089;-64
2022/01/31 08:00:44;;;;;;;73.50;43.83;;;6.00;90.90;;;;;;4995090;28;20485;-68
2022/01/31 08:03:12;;;;;;;20.70;8.88;;;6.00;91.70;;;;;;4996163;28;20057;-64
2022/01/31 08:05:40;;;;;;;14.88;4.60;;;6.00;91.30;;;;;;5011781;28;20104;-68
2022/01/31 08:08:07;;;;;;;8.27;2.95;;;6.00;91.90;;;;;;4997707;28;20064;-64
2022/01/31 08:10:36;;;;;;;9.23;2.78;;;6.00;91.80;;;;;;5012516;28;20053;-63
2022/01/31 08:13:06;;;;;;;13.90;3.78;;;5.90;92.40;;;;;;5013084;28;20057;-64
2022/01/31 08:15:44;;;;;;;;;;;5.90;92.70;;;;;;4994861;28;20544;-66
2022/01/31 08:18:11;;;;;;;11.48;3.45;;;5.90;93.00;;;;;;5013671;28;20288;-67
2022/01/31 08:20:43;;;;;;;7.97;3.22;;;5.80;93.00;;;;;;5011694;28;20054;-69
2022/01/31 08:23:10;;;;;;;10.85;3.63;;;5.80;93.60;;;;;;5013206;28;20050;-68
2022/01/31 08:25:37;;;;;;;7.38;3.13;;;5.80;94.50;;;;;;5012921;28;20125;-67
2022/01/31 08:28:10;;;;;;;9.55;2.70;;;5.80;93.50;;;;;;5005960;28;20065;-68
2022/01/31 08:31:06;;;;;;;7.10;1.98;;;5.80;92.70;;;;;;5012326;28;20128;-66
2022/01/31 08:34:22;;;;;;;11.25;2.33;;;5.80;92.80;;;;;;4998586;28;20053;-71
2022/01/31 08:36:15;;;;;;;9.27;4.05;;;5.80;93.00;;;;;;4983045;28;20053;-68
2022/01/31 08:38:43;;;;;;;11.15;3.20;;;5.80;92.50;;;;;;5007103;28;20462;-67
2022/01/31 08:41:10;;;;;;;10.27;2.72;;;5.80;92.50;;;;;;4995169;28;20060;-67
2022/01/31 08:43:37;;;;;;;13.82;3.03;;;5.80;92.00;;;;;;4979264;28;20056;-66
2022/01/31 08:46:05;;;;;;;10.30;3.05;;;5.80;91.20;;;;;;4995321;28;20514;-65
2022/01/31 08:48:33;;;;;;;81.80;50.65;;;5.90;90.90;;;;;;5001431;28;20038;-65
2022/01/31 08:51:00;;;;;;;19.23;6.35;;;6.00;90.20;;;;;;5019611;28;20049;-66
2022/01/31 08:53:27;;;;;;;15.90;4.93;;;6.00;88.80;;;;;;5026264;28;20081;-66
2022/01/31 08:55:55;;;;;;;13.55;3.22;;;6.10;86.60;;;;;;5017350;28;20044;-65
2022/01/31 08:58:23;;;;;;;19.88;3.72;;;6.10;87.00;;;;;;5014678;28;20060;-70
2022/01/31 09:00:58;;;;;;;14.40;3.97;;;6.10;84.30;;;;;;5032536;28;20050;-67
2022/01/31 09:06:05;;;;;;;12.02;2.35;;;6.20;82.50;;;;;;5033813;28;20477;-68
2022/01/31 09:08:32;;;;;;;7.78;2.97;;;6.30;81.50;;;;;;5044025;28;20115;-67
2022/01/31 09:10:59;;;;;;;10.63;2.42;;;6.30;82.40;;;;;;5035662;28;20053;-67
2022/01/31 09:13:26;;;;;;;5.75;2.22;;;6.30;81.70;;;;;;5032332;28;20471;-68
2022/01/31 09:15:53;;;;;;;10.13;2.90;;;6.30;81.10;;;;;;5032518;28;20053;-66
2022/01/31 09:18:20;;;;;;;10.23;2.83;;;6.30;81.20;;;;;;5032695;28;20084;-67
2022/01/31 09:20:47;;;;;;;13.13;3.35;;;6.40;80.70;;;;;;5034249;28;20555;-69
2022/01/31 09:23:14;;;;;;;9.90;2.45;;;6.40;79.50;;;;;;5014891;28;20074;-69
2022/01/31 09:25:45;;;;;;;11.05;3.17;;;6.40;78.60;;;;;;5014801;28;20136;-69
2022/01/31 09:28:16;;;;;;;21.63;6.82;;;6.50;79.40;;;;;;4998818;28;20042;-70
2022/01/31 09:30:44;;;;;;;12.35;3.08;;;6.50;78.20;;;;;;5013721;28;20050;-70
2022/01/31 09:33:11;;;;;;;8.50;3.67;;;6.50;78.00;;;;;;5013436;28;20049;-69
2022/01/31 09:35:38;;;;;;;9.25;3.35;;;6.50;76.50;;;;;;5014455;28;20132;-69
2022/01/31 09:38:06;;;;;;;8.88;2.05;;;6.50;75.80;;;;;;5015711;28;20046;-69
2022/01/31 09:40:33;;;;;;;10.35;2.88;;;6.60;75.30;;;;;;5031908;28;20523;-69
2022/01/31 09:48:35;;;;;;;9.00;3.08;;;6.70;72.50;;;;;;5014420;28;20451;-69
2022/01/31 09:51:07;;;;;;;7.97;2.45;;;6.70;70.20;;;;;;5018357;28;20083;-70
2022/01/31 09:53:41;;;;;;;7.30;2.45;;;6.80;71.50;;;;;;5031584;28;20195;-68
2022/01/31 09:56:10;;;;;;;8.85;2.55;;;6.80;71.30;;;;;;5018574;28;20057;-67
2022/01/31 09:58:37;;;;;;;16.30;7.55;;;6.80;70.80;;;;;;4988339;28;20501;-69
2022/01/31 10:01:25;;;;;;;9.05;3.55;;;6.80;72.40;;;;;;4992643;28;20046;-70
2022/01/31 10:03:58;;;;;;;8.00;3.05;;;6.90;69.40;;;;;;5009395;28;20050;-69
2022/01/31 10:06:25;;;;;;;9.85;3.75;;;6.90;69.80;;;;;;4995218;28;20069;-70
2022/01/31 10:09:13;;;;;;;11.05;2.28;;;7.00;68.20;;;;;;5001988;28;20057;-69
2022/01/31 10:11:49;;;;;;;6.93;2.40;;;6.90;69.70;;;;;;5012135;28;20137;-69
2022/01/31 10:17:28;;;;;;;6.40;2.63;;;6.90;68.30;;;;;;5011925;28;20108;-69
2022/01/31 10:20:30;;;;;;;6.95;2.28;;;7.00;67.20;;;;;;4982058;28;20049;-69
2022/01/31 10:23:09;;;;;;;9.13;2.53;;;7.00;67.90;;;;;;4995043;28;20100;-69
2022/01/31 10:25:36;;;;;;;9.13;2.53;;;7.00;66.90;;;;;;5011698;28;20144;-69
2022/01/31 10:28:18;;;;;;;9.45;2.38;;;7.10;68.40;;;;;;4981781;28;20045;-69
2022/01/31 10:30:46;;;;;;;13.52;2.85;;;7.10;68.80;;;;;;4994859;28;20077;-69
2022/01/31 10:33:14;;;;;;;6.07;2.65;;;7.20;67.60;;;;;;4995092;28;20366;-69
2022/01/31 10:35:43;;;;;;;9.32;3.17;;;7.20;67.30;;;;;;4994337;28;20523;-69
2022/01/31 10:38:18;;;;;;;11.27;2.88;;;7.20;67.50;;;;;;4996098;28;20050;-69
2022/01/31 10:44:19;;;;;;;9.32;2.17;;;7.30;66.20;;;;;;5027260;28;20086;-69
2022/01/31 10:54:29;;;;;;;9.35;2.20;;;7.30;66.30;;;;;;5027795;28;20052;-70
2022/01/31 10:57:15;;;;;;;7.50;1.98;;;7.30;64.50;;;;;;5020923;28;20053;-69
2022/01/31 10:59:43;;;;;;;5.90;2.15;;;7.30;61.50;;;;;;5029881;28;20059;-69
2022/01/31 11:02:18;;;;;;;7.30;3.17;;;7.40;63.90;;;;;;5003965;28;20076;-69
2022/01/31 11:04:46;;;;;;;8.52;2.00;;;7.40;62.20;;;;;;5016568;28;20041;-70
2022/01/31 11:07:18;;;;;;;4.68;2.05;;;7.40;62.20;;;;;;5034067;28;20053;-69
2022/01/31 11:09:46;;;;;;;7.32;2.15;;;7.50;62.50;;;;;;5019308;28;20530;-69
2022/01/31 11:12:13;;;;;;;8.95;1.70;;;7.50;61.20;;;;;;5033217;28;20053;-69
2022/01/31 11:14:42;;;;;;;5.03;2.10;;;7.50;60.70;;;;;;5016911;28;20075;-70
2022/01/31 11:17:11;;;;;;;3.95;2.42;;;7.50;59.40;;;;;;5000386;28;20503;-69
2022/01/31 11:19:43;;;;;;;9.10;2.78;;;7.40;59.30;;;;;;5000697;28;20046;-69
2022/01/31 11:22:11;;;;;;;6.63;2.00;;;7.50;59.90;;;;;;5016612;28;20061;-69
2022/01/31 11:25:08;;;;;;;5.07;1.73;;;7.50;57.70;;;;;;5028697;28;20042;-70
2022/01/31 11:27:36;;;;;;;10.20;2.33;;;7.50;57.00;;;;;;5016333;28;20137;-70
2022/01/31 11:30:06;;;;;;;21.70;10.30;;;7.60;58.40;;;;;;5016216;28;20049;-71
2022/01/31 11:32:33;;;;;;;20.15;6.25;;;7.60;59.10;;;;;;5033411;28;20425;-68
2022/01/31 11:35:00;;;;;;;9.40;2.80;;;7.60;58.60;;;;;;5000609;28;20060;-65
2022/01/31 11:37:26;;;;;;;5.20;1.90;;;7.60;58.90;;;;;;5033419;28;20054;-64
2022/01/31 11:40:05;;;;;;;12.52;3.00;;;7.60;58.50;;;;;;5034806;28;20404;-65
2022/01/31 11:42:33;;;;;;;4.03;1.30;;;7.70;58.60;;;;;;5025297;28;20048;-62
2022/01/31 11:45:04;;;;;;;7.40;1.67;;;7.70;58.40;;;;;;5015564;28;20045;-63
2022/01/31 11:47:31;;;;;;;6.60;2.47;;;7.80;59.60;;;;;;5033174;28;20041;-65
2022/01/31 11:50:02;;;;;;;5.72;2.63;;;7.80;58.50;;;;;;5030164;28;20140;-65
2022/01/31 11:52:47;;;;;;;6.53;2.20;;;7.70;58.60;;;;;;5031890;28;20060;-66
2022/01/31 11:55:16;;;;;;;7.95;2.88;;;7.60;59.50;;;;;;5030486;28;20044;-65
2022/01/31 11:57:47;;;;;;;8.20;2.88;;;7.60;61.30;;;;;;5015932;28;20140;-67
2022/01/31 12:00:15;;;;;;;6.00;2.00;;;7.50;59.80;;;;;;5029496;28;20470;-67
2022/01/31 12:02:47;;;;;;;7.00;2.78;;;7.50;60.00;;;;;;5013385;28;20420;-67
2022/01/31 12:05:20;;;;;;;4.32;2.13;;;7.50;61.20;;;;;;5020288;28;20488;-66
2022/01/31 12:07:48;;;;;;;8.95;2.78;;;7.50;61.30;;;;;;5032032;28;20458;-64
2022/01/31 12:10:22;;;;;;;5.03;2.08;;;7.60;62.10;;;;;;5025317;28;20056;-67
2022/01/31 12:13:10;;;;;;;8.38;1.95;;;7.60;59.70;;;;;;5035726;28;20042;-69
2022/01/31 12:15:55;;;;;;;10.43;2.35;;;7.60;59.50;;;;;;5027252;28;20049;-66
2022/01/31 12:18:34;;;;;;;6.35;2.13;;;7.70;59.30;;;;;;5045303;28;20046;-67
2022/01/31 12:23:58;;;;;;;6.32;1.98;;;7.80;58.20;;;;;;5034541;28;20060;-67
2022/01/31 12:26:31;;;;;;;6.80;1.70;;;7.70;57.80;;;;;;5016405;28;20507;-67
2022/01/31 12:29:07;;;;;;;6.80;1.88;;;7.70;59.40;;;;;;5041503;28;20052;-66
2022/01/31 12:31:34;;;;;;;6.25;2.05;;;7.70;59.10;;;;;;5034745;28;20049;-71
2022/01/31 12:34:09;;;;;;;7.90;3.80;;;7.60;59.40;;;;;;5032161;28;20050;-67
2022/01/31 12:36:36;;;;;;;11.93;6.65;;;7.60;59.10;;;;;;5036595;28;20063;-66
2022/01/31 12:39:05;;;;;;;8.38;4.15;;;7.60;60.10;;;;;;5032717;28;20053;-66
2022/01/31 12:41:33;;;;;;;6.63;2.70;;;7.60;59.90;;;;;;5032743;28;20549;-66
2022/01/31 12:44:31;;;;;;;12.27;2.90;;;7.70;60.30;;;;;;5015961;28;20087;-66
2022/01/31 12:47:15;;;;;;;6.18;1.80;;;7.70;59.00;;;;;;5033252;28;20413;-69
2022/01/31 12:49:43;;;;;;;4.88;1.60;;;7.70;58.40;;;;;;5033745;28;20073;-67
2022/01/31 12:52:10;;;;;;;5.75;2.63;;;7.70;59.10;;;;;;5018138;28;20045;-66
2022/01/31 12:54:38;;;;;;;6.63;2.20;;;7.70;59.90;;;;;;5010626;28;20141;-66
2022/01/31 12:57:11;;;;;;;11.57;2.90;;;7.70;60.20;;;;;;5038734;28;20060;-63
2022/01/31 12:59:40;;;;;;;7.88;2.67;;;7.70;60.20;;;;;;5035861;28;20483;-67
2022/01/31 13:02:08;;;;;;;47.83;32.72;;;7.70;59.00;;;;;;5035833;28;20137;-64
2022/01/31 13:04:36;;;;;;;203.27;124.67;;;7.80;58.30;;;;;;5022161;28;20457;-65
2022/01/31 13:07:05;;;;;;;18.92;9.52;;;7.90;59.60;;;;;;5031844;28;20129;-67
2022/01/31 13:09:52;;;;;;;28.42;14.93;;;7.90;59.10;;;;;;5024894;28;20041;-66
2022/01/31 13:12:22;;;;;;;12.70;3.20;;;7.90;59.50;;;;;;5003999;28;20044;-66
2022/01/31 13:14:52;;;;;;;8.30;3.10;;;8.00;58.00;;;;;;5040414;28;20053;-64
2022/01/31 13:17:23;;;;;;;7.53;2.33;;;8.00;59.00;;;;;;5033083;28;20140;-65
2022/01/31 13:19:53;;;;;;;9.30;3.08;;;8.00;57.30;;;;;;5047259;28;20115;-68
2022/01/31 13:22:28;;;;;;;;;;;8.00;56.80;;;;;;5045452;28;20076;-65
2022/01/31 13:24:57;;;;;;;32.10;22.17;;;8.00;55.80;;;;;;5049020;28;19921;-64
2022/01/31 13:27:35;;;;;;;7.85;2.78;;;8.00;57.00;;;;;;5032024;28;20056;-65
2022/01/31 13:30:19;;;;;;;6.85;2.13;;;8.10;54.70;;;;;;5015259;28;20049;-65
2022/01/31 13:32:47;;;;;;;11.18;5.15;;;8.10;53.40;;;;;;5015318;28;20443;-64
2022/01/31 13:35:33;;;;;;;6.15;2.30;;;8.00;55.40;;;;;;5014755;28;20370;-66